Seven Seas Voyager — C6SW3 — position and weather

sailwx.info

Track history (hours):
 
Tides and Currents Weather Stations Pressure Air Temp Water Temp Dewpoint Dewpoint Depression Visibility Wind Speed Wind Dir Waves Ship Positions

Seven Seas Voyager

Last reported at 2017-Mar-23 23:29 UTC. Time now 2017-Mar-27 06:51 UTC.
Position N 37°38' E 122°34'.

Length 205 m; draft 7 m.

Type: Ship. MMSI: 31151000.

Date/timePositionNaut miles runAvg speedWind from/ knotsBaromVisibWave heightAir tempDewpointWater temp
2017-Mar-23 23:29N 37°38' E 122°34'1819.1
2017-Mar-23 22:33N 37°47' E 122°15'1918.7
2017-Mar-23 21:33N 37°56' E 121°55'3919.1
2017-Mar-23 19:32N 38°20' E 121°16'3918.3
2017-Mar-23 17:23N 38°36' E 120°30'1518.3
2017-Mar-23 16:32N 38°39' E 120°10'9 0.2
2017-Mar-21 16:14N 38°39' E 120°22'1216.3
2017-Mar-21 15:32N 38°39' E 120°36'1616.5
2017-Mar-21 14:33N 38°36' E 120°57'1818.0
2017-Mar-21 13:33N 38°31' E 121°19'1918.9
2017-Mar-21 12:33N 38°33' E 121°43'1818.0
2017-Mar-21 11:33N 38°51' E 121°44'6 0.7
2017-Mar-21 02:31N 38°56' E 121°40'7 7.4
2017-Mar-21 01:30N 38°52' E 121°48'1717.6
2017-Mar-21 00:33N 38°40' E 122°03'392 7.9
2017-Mar-18 23:06N 33°43' E 127°19'916.3
2017-Mar-18 22:33N 33°42' E 127°30'1716.0
2017-Mar-18 21:31N 33°37' E 127°49'  
2017-Mar-16 06:33N 34°06' E 134°57'1818.2
2017-Mar-16 05:33N 34°24' E 135°02'1817.5
2017-Mar-16 04:33N 34°37' E 135°16'5 4.4
2017-Mar-16 03:27N 34°41' E 135°12'0 0.0
2017-Mar-16 02:33N 34°41' E 135°12'0 0.0
2017-Mar-16 01:33N 34°41' E 135°12'0 0.0
2017-Mar-16 00:27N 34°41' E 135°12'0 0.0
2017-Mar-15 23:27N 34°41' E 135°12'0 0.0
2017-Mar-15 22:33N 34°41' E 135°12'0 0.0
2017-Mar-15 21:33N 34°41' E 135°12'0 0.0
2017-Mar-15 20:33N 34°41' E 135°12'0 0.0
2017-Mar-15 19:33N 34°41' E 135°12'0 0.0
2017-Mar-15 18:33N 34°41' E 135°12'0 0.0
2017-Mar-15 17:33N 34°41' E 135°12'0 0.0
2017-Mar-15 16:33N 34°41' E 135°12'0 0.0
2017-Mar-15 15:33N 34°41' E 135°12'0 0.0
2017-Mar-15 14:33N 34°41' E 135°12'0 0.0
2017-Mar-15 13:33N 34°41' E 135°12'0 0.0
2017-Mar-15 12:33N 34°41' E 135°12'0 0.0
2017-Mar-15 11:33N 34°41' E 135°12'0 0.0
2017-Mar-15 10:33N 34°41' E 135°12'0 0.0
2017-Mar-15 09:33N 34°41' E 135°12'0 0.0
2017-Mar-15 08:33N 34°41' E 135°12'0 0.0
2017-Mar-15 07:21N 34°41' E 135°12'0 0.0
2017-Mar-15 06:33N 34°41' E 135°12'0 0.0
2017-Mar-15 04:27N 34°41' E 135°12'0 0.0
2017-Mar-15 03:33N 34°41' E 135°12'0 0.0
2017-Mar-15 02:27N 34°41' E 135°12'0 0.0
2017-Mar-15 01:21N 34°41' E 135°12'0 0.0
2017-Mar-15 00:33N 34°41' E 135°12'0 0.0
2017-Mar-14 23:33N 34°41' E 135°12'1 0.8
2017-Mar-14 22:33N 34°41' E 135°13'8 8.3
2017-Mar-14 21:33N 34°33' E 135°15'1413.4
2017-Mar-14 20:33N 34°23' E 135°04'1312.9
2017-Mar-14 19:33N 34°10' E 135°01'1110.8
2017-Mar-14 18:33N 33°60' E 134°58'  
Track history (hours):
 
Tides and Currents Weather Stations Pressure Air Temp Water Temp Dewpoint Dewpoint Depression Visibility Wind Speed Wind Dir Waves Ship Positions

Seven Seas Voyager

Last reported at 2017-Mar-23 23:29 UTC. Time now 2017-Mar-27 06:51 UTC.
Position N 37°38' E 122°34'.

Length 205 m; draft 7 m.

Type: Ship. MMSI: 31151000.

Date/timePositionNaut miles runAvg speedWind from/ knotsBaromVisibWave heightAir tempDewpointWater temp
2017-Mar-23 23:29N 37°38' E 122°34'1819.1
2017-Mar-23 22:33N 37°47' E 122°15'1918.7
2017-Mar-23 21:33N 37°56' E 121°55'3919.1
2017-Mar-23 19:32N 38°20' E 121°16'3918.3
2017-Mar-23 17:23N 38°36' E 120°30'1518.3
2017-Mar-23 16:32N 38°39' E 120°10'9 0.2
2017-Mar-21 16:14N 38°39' E 120°22'1216.3
2017-Mar-21 15:32N 38°39' E 120°36'1616.5
2017-Mar-21 14:33N 38°36' E 120°57'1818.0
2017-Mar-21 13:33N 38°31' E 121°19'1918.9
2017-Mar-21 12:33N 38°33' E 121°43'1818.0
2017-Mar-21 11:33N 38°51' E 121°44'6 0.7
2017-Mar-21 02:31N 38°56' E 121°40'7 7.4
2017-Mar-21 01:30N 38°52' E 121°48'1717.6
2017-Mar-21 00:33N 38°40' E 122°03'392 7.9
2017-Mar-18 23:06N 33°43' E 127°19'916.3
2017-Mar-18 22:33N 33°42' E 127°30'1716.0
2017-Mar-18 21:31N 33°37' E 127°49'  
2017-Mar-16 06:33N 34°06' E 134°57'1818.2
2017-Mar-16 05:33N 34°24' E 135°02'1817.5
2017-Mar-16 04:33N 34°37' E 135°16'5 4.4
2017-Mar-16 03:27N 34°41' E 135°12'0 0.0
2017-Mar-16 02:33N 34°41' E 135°12'0 0.0
2017-Mar-16 01:33N 34°41' E 135°12'0 0.0
2017-Mar-16 00:27N 34°41' E 135°12'0 0.0
2017-Mar-15 23:27N 34°41' E 135°12'0 0.0
2017-Mar-15 22:33N 34°41' E 135°12'0 0.0
2017-Mar-15 21:33N 34°41' E 135°12'0 0.0
2017-Mar-15 20:33N 34°41' E 135°12'0 0.0
2017-Mar-15 19:33N 34°41' E 135°12'0 0.0
2017-Mar-15 18:33N 34°41' E 135°12'0 0.0
2017-Mar-15 17:33N 34°41' E 135°12'0 0.0
2017-Mar-15 16:33N 34°41' E 135°12'0 0.0
2017-Mar-15 15:33N 34°41' E 135°12'0 0.0
2017-Mar-15 14:33N 34°41' E 135°12'0 0.0
2017-Mar-15 13:33N 34°41' E 135°12'0 0.0
2017-Mar-15 12:33N 34°41' E 135°12'0 0.0
2017-Mar-15 11:33N 34°41' E 135°12'0 0.0
2017-Mar-15 10:33N 34°41' E 135°12'0 0.0
2017-Mar-15 09:33N 34°41' E 135°12'0 0.0
2017-Mar-15 08:33N 34°41' E 135°12'0 0.0
2017-Mar-15 07:21N 34°41' E 135°12'0 0.0
2017-Mar-15 06:33N 34°41' E 135°12'0 0.0
2017-Mar-15 04:27N 34°41' E 135°12'0 0.0
2017-Mar-15 03:33N 34°41' E 135°12'0 0.0
2017-Mar-15 02:27N 34°41' E 135°12'0 0.0
2017-Mar-15 01:21N 34°41' E 135°12'0 0.0
2017-Mar-15 00:33N 34°41' E 135°12'0 0.0
2017-Mar-14 23:33N 34°41' E 135°12'1 0.8
2017-Mar-14 22:33N 34°41' E 135°13'8 8.3
2017-Mar-14 21:33N 34°33' E 135°15'1413.4
2017-Mar-14 20:33N 34°23' E 135°04'1312.9
2017-Mar-14 19:33N 34°10' E 135°01'1110.8
2017-Mar-14 18:33N 33°60' E 134°58'  

Dump ship's entire track history